地図

経路データ

SID SEASON NUMBER BASIN SUBBASIN NAME ISO_TIME NATURE LAT LON WMO_WIND WMO_PRES WMO_AGENCY TRACK_TYPE DIST2LAND LANDFALL IFLAG USA_AGENCY USA_ATCF_ID USA_LAT USA_LON USA_RECORD USA_STATUS USA_WIND USA_PRES USA_SSHS USA_R34_NE USA_R34_SE USA_R34_SW USA_R34_NW USA_R50_NE USA_R50_SE USA_R50_SW USA_R50_NW USA_R64_NE USA_R64_SE USA_R64_SW USA_R64_NW USA_POCI USA_ROCI USA_RMW USA_EYE TOKYO_LAT TOKYO_LON TOKYO_GRADE TOKYO_WIND TOKYO_PRES TOKYO_R50_DIR TOKYO_R50_LONG TOKYO_R50_SHORT TOKYO_R30_DIR TOKYO_R30_LONG TOKYO_R30_SHORT TOKYO_LAND CMA_LAT CMA_LON CMA_CAT CMA_WIND CMA_PRES HKO_LAT HKO_LON HKO_CAT HKO_WIND HKO_PRES NEWDELHI_LAT NEWDELHI_LON NEWDELHI_GRADE NEWDELHI_WIND NEWDELHI_PRES NEWDELHI_CI NEWDELHI_DP NEWDELHI_POCI REUNION_LAT REUNION_LON REUNION_TYPE REUNION_WIND REUNION_PRES REUNION_TNUM REUNION_CI REUNION_RMW REUNION_R34_NE REUNION_R34_SE REUNION_R34_SW REUNION_R34_NW REUNION_R50_NE REUNION_R50_SE REUNION_R50_SW REUNION_R50_NW REUNION_R64_NE REUNION_R64_SE REUNION_R64_SW REUNION_R64_NW BOM_LAT BOM_LON BOM_TYPE BOM_WIND BOM_PRES BOM_TNUM BOM_CI BOM_RMW BOM_R34_NE BOM_R34_SE BOM_R34_SW BOM_R34_NW BOM_R50_NE BOM_R50_SE BOM_R50_SW BOM_R50_NW BOM_R64_NE BOM_R64_SE BOM_R64_SW BOM_R64_NW BOM_ROCI BOM_POCI BOM_EYE BOM_POS_METHOD BOM_PRES_METHOD NADI_LAT NADI_LON NADI_CAT NADI_WIND NADI_PRES WELLINGTON_LAT WELLINGTON_LON WELLINGTON_WIND WELLINGTON_PRES DS824_LAT DS824_LON DS824_STAGE DS824_WIND DS824_PRES TD9636_LAT TD9636_LON TD9636_STAGE TD9636_WIND TD9636_PRES TD9635_LAT TD9635_LON TD9635_WIND TD9635_PRES TD9635_ROCI NEUMANN_LAT NEUMANN_LON NEUMANN_CLASS NEUMANN_WIND NEUMANN_PRES MLC_LAT MLC_LON MLC_CLASS MLC_WIND MLC_PRES USA_GUST BOM_GUST BOM_GUST_PER REUNION_GUST REUNION_GUST_PER USA_SEAHGT USA_SEARAD_NE USA_SEARAD_SE USA_SEARAD_SW USA_SEARAD_NW STORM_SPEED STORM_DIR
1959041S10189 1959 17 SP MM NOT_NAMED 1959-02-09 12:00:00 TS -9.80000 -171.200 main 434 363 O________OO___ jtwc_sh SH181959 -9.80000 -171.200 -1 -9.80000 188.800 TC 35 -9.80000 -171.200 2 14 198
1959041S10189 1959 17 SP MM NOT_NAMED 1959-02-09 15:00:00 TS -10.4652 -171.412 main 353 293 P________PP___ SH181959 -10.4876 -171.422 -1 -10.4876 -171.422 TC 35 -10.4204 -171.391 2 13 197
1959041S10189 1959 17 SP MM NOT_NAMED 1959-02-09 18:00:00 TS -11.0675 -171.586 main 282 236 O________OP___ jtwc_sh SH181959 -11.1000 -171.600 -1 -11.1000 188.400 TC 35 -11.0026 -171.556 2 11 194
1959041S10189 1959 17 SP MM NOT_NAMED 1959-02-09 21:00:00 TS -11.5528 -171.686 main 225 194 P________PP___ SH181959 -11.5750 -171.695 -1 -11.5750 -171.695 TC 35 -11.5085 -171.668 2 8 188
1959041S10189 1959 17 SP MM NOT_NAMED 1959-02-10 00:00:00 TS -11.9000 -171.700 main 194 174 O________OO___ jtwc_sh SH181959 -11.9000 -171.700 -1 -11.9000 188.300 TC 35 -11.9000 -171.700 2 6 174
1959041S10189 1959 17 SP MM NOT_NAMED 1959-02-10 03:00:00 TS -12.1096 -171.632 main 179 169 P________PP___ SH181959 -12.0875 -171.630 -1 -12.0875 -171.630 TC 35 -12.1537 -171.635 2 4 150
1959041S10189 1959 17 SP MM NOT_NAMED 1959-02-10 06:00:00 TS -12.2350 -171.501 main 175 164 O________OP___ jtwc_sh SH181959 -12.2000 -171.500 -1 -12.2000 188.500 TC 35 -12.3050 -171.503 2 4 132
1959041S10189 1959 17 SP MM NOT_NAMED 1959-02-10 09:00:00 TS -12.3679 -171.338 main 171 171 P________PP___ SH181959 -12.3500 -171.335 -1 -12.3500 -171.335 TC 35 -12.4038 -171.344 2 4 132
1959041S10189 1959 17 SP MM NOT_NAMED 1959-02-10 12:00:00 TS -12.5000 -171.200 main 171 163 O________OO___ jtwc_sh SH181959 -12.5000 -171.200 -1 -12.5000 188.800 TC 35 -12.5000 -171.200 2 3 150
1959041S10189 1959 17 SP MM NOT_NAMED 1959-02-10 15:00:00 TS -12.6360 -171.182 main 163 147 P________PP___ SH181959 -12.6425 -171.192 -1 -12.6425 -171.192 TC 35 -12.6230 -171.160 2 3 0
1959041S10189 1959 17 SP MM NOT_NAMED 1959-02-10 18:00:00 TS -12.7866 -171.179 main 147 140 O________OP___ jtwc_sh SH181959 -12.8000 -171.200 -1 -12.8000 188.800 TC 35 -12.7598 -171.137 2 3 171
1959041S10189 1959 17 SP MM NOT_NAMED 1959-02-10 21:00:00 TS -12.9556 -171.123 main 142 136 P________PP___ SH181959 -12.9625 -171.137 -1 -12.9625 -171.137 TC 35 -12.9417 -171.095 2 5 157
1959041S10189 1959 17 SP MM NOT_NAMED 1959-02-11 00:00:00 TS -13.2000 -171.000 main 141 137 O________OO___ jtwc_sh SH181959 -13.2000 -171.000 -1 -13.2000 189.000 TC 35 -13.2000 -171.000 2 7 152
1959041S10189 1959 17 SP MM NOT_NAMED 1959-02-11 03:00:00 TS -13.5712 -170.784 main 151 151 P________PP___ SH181959 -13.5550 -170.773 -1 -13.5550 -170.773 TC 35 -13.6036 -170.808 2 10 151
1959041S10189 1959 17 SP MM NOT_NAMED 1959-02-11 06:00:00 TS -14.0259 -170.520 main 184 184 O________OP___ jtwc_sh SH181959 -14.0000 -170.500 -1 -14.0000 189.500 TC 35 -14.0777 -170.561 2 11 152
1959041S10189 1959 17 SP MM NOT_NAMED 1959-02-11 09:00:00 TS -14.5360 -170.261 main 219 219 P________PP___ SH181959 -14.5225 -170.250 -1 -14.5225 -170.250 TC 35 -14.5630 -170.283 2 11 153
1959041S10189 1959 17 SP MM NOT_NAMED 1959-02-11 12:00:00 TS -15.0000 -170.000 main 272 272 O________OO___ jtwc_sh SH181959 -15.0000 -170.000 -1 -15.0000 190.000 TC 35 -15.0000 -170.000 2 9 148
1959041S10189 1959 17 SP MM NOT_NAMED 1959-02-11 15:00:00 TS -15.2871 -169.767 main 308 308 P________PP___ SH181959 -15.2875 -169.750 -1 -15.2875 -169.750 TC 35 -15.2865 -169.802 2 7 138
1959041S10189 1959 17 SP MM NOT_NAMED 1959-02-11 18:00:00 TS -15.5071 -169.532 main 347 347 O________OP___ jtwc_sh SH181959 -15.5000 -169.500 -1 -15.5000 190.500 TC 35 -15.5214 -169.596 2 6 135
1959041S10189 1959 17 SP MM NOT_NAMED 1959-02-11 21:00:00 TS -15.7334 -169.305 main 377 377 P________PP___ SH181959 -15.7273 -169.287 -1 -15.7273 -169.287 TC 35 -15.7456 -169.342 2 7 134
1959041S10189 1959 17 SP MM NOT_NAMED 1959-02-12 00:00:00 TS -16.0000 -169.000 main 423 423 O________OO___ jtwc_sh SH181959 -16.0000 -169.000 -1 -16.0000 191.000 TC 35 -16.0000 -169.000 2 10 132
1959041S10189 1959 17 SP MM NOT_NAMED 1959-02-12 03:00:00 TS -16.3778 -168.551 main 483 483 P________PP___ SH181959 -16.3849 -168.560 -1 -16.3849 -168.560 TC 35 -16.3637 -168.531 2 13 129
1959041S10189 1959 17 SP MM NOT_NAMED 1959-02-12 06:00:00 TS -16.7859 -167.990 main 561 561 O________OP___ jtwc_sh SH181959 -16.8000 -168.000 -1 -16.8000 192.000 TC 35 -16.7578 -167.971 2 14 125
1959041S10189 1959 17 SP MM NOT_NAMED 1959-02-12 09:00:00 TS -17.1643 -167.360 main 639 639 P________PP___ SH181959 -17.1726 -167.365 -1 -17.1726 -167.365 TC 35 -17.1479 -167.350 2 14 120
1959041S10189 1959 17 SP MM NOT_NAMED 1959-02-12 12:00:00 TS -17.5000 -166.700 main 720 720 O________OO___ jtwc_sh SH181959 -17.5000 -166.700 -1 -17.5000 193.300 TC 35 -17.5000 -166.700 2 13 117
1959041S10189 1959 17 SP MM NOT_NAMED 1959-02-12 15:00:00 TS -17.7742 -166.115 main 791 791 P________PP___ SH181959 -17.7721 -166.107 -1 -17.7721 -166.107 TC 35 -17.7783 -166.131 2 12 114
1959041S10189 1959 17 SP MM NOT_NAMED 1959-02-12 18:00:00 TS -18.0048 -165.511 main 856 856 O________OP___ jtwc_sh SH181959 -18.0000 -165.500 -1 -18.0000 194.500 TC 35 -18.0143 -165.533 2 13 110
1959041S10189 1959 17 SP MM NOT_NAMED 1959-02-12 21:00:00 TS -18.2156 -164.863 main 922 922 P________PP___ SH181959 -18.2143 -164.860 -1 -18.2143 -164.860 TC 35 -18.2183 -164.869 2 14 106
1959041S10189 1959 17 SP MM NOT_NAMED 1959-02-13 00:00:00 TS -18.4000 -164.100 main 1006 1006 O________OO___ jtwc_sh SH181959 -18.4000 -164.100 -1 -18.4000 195.900 TC 35 -18.4000 -164.100 2 17 102
1959041S10189 1959 17 SP MM NOT_NAMED 1959-02-13 03:00:00 TS -18.5548 -163.150 main 1110 1110 P________PP___ SH181959 -18.5575 -163.152 -1 -18.5575 -163.152 TC 35 -18.5493 -163.145 2 19 99
1959041S10189 1959 17 SP MM NOT_NAMED 1959-02-13 06:00:00 TS -18.6935 -162.098 main 1209 1209 O________OP___ jtwc_sh SH181959 -18.7000 -162.100 -1 -18.7000 197.900 TC 35 -18.6805 -162.093 2 20 98
1959041S10189 1959 17 SP MM NOT_NAMED 1959-02-13 09:00:00 TS -18.8304 -161.025 main 1319 1319 P________PP___ SH181959 -18.8350 -161.027 -1 -18.8350 -161.027 TC 35 -18.8211 -161.020 2 20 99
1959041S10189 1959 17 SP MM NOT_NAMED 1959-02-13 12:00:00 TS -19.0000 -160.000 main 1425 1425 O________OO___ jtwc_sh SH181959 -19.0000 -160.000 -1 -19.0000 200.000 TC 35 -19.0000 -160.000 2 19 102
1959041S10189 1959 17 SP MM NOT_NAMED 1959-02-13 15:00:00 TS -19.2258 -159.105 main 1521 1521 P________PP___ SH181959 -19.2194 -159.105 -1 -19.2194 -159.105 TC 35 -19.2388 -159.107 2 17 107
1959041S10189 1959 17 SP MM NOT_NAMED 1959-02-13 18:00:00 TS -19.5076 -158.293 main 1611 1611 O________OP___ jtwc_sh SH181959 -19.5000 -158.300 -1 -19.5000 201.700 TC 35 -19.5229 -158.280 2 16 112
1959041S10189 1959 17 SP MM NOT_NAMED 1959-02-13 21:00:00 TS -19.8383 -157.518 main 1701 1701 P________PP___ SH181959 -19.8347 -157.520 -1 -19.8347 -157.520 TC 35 -19.8456 -157.513 2 16 116
1959041S10189 1959 17 SP MM NOT_NAMED 1959-02-14 00:00:00 TS -20.2000 -156.800 main 1786 1786 O________OO___ jtwc_sh SH181959 -20.2000 -156.800 -1 -20.2000 203.200 TC 35 -20.2000 -156.800 2 15 118
1959041S10189 1959 17 SP MM NOT_NAMED 1959-02-14 03:00:00 TS -20.5383 -156.120 main 1866 1866 P________PP___ SH181959 -20.5347 -156.127 -1 -20.5347 -156.127 TC 35 -20.5456 -156.107 2 14 120
1959041S10189 1959 17 SP MM NOT_NAMED 1959-02-14 06:00:00 TS -20.9078 -155.489 main 1940 1940 O________OP___ jtwc_sh SH181959 -20.9000 -155.500 -1 -20.9000 204.500 TC 35 -20.9235 -155.466 2 14 124
1959041S10189 1959 17 SP MM NOT_NAMED 1959-02-14 09:00:00 TS -21.3314 -154.879 main 2015 2015 P________PP___ SH181959 -21.3273 -154.885 -1 -21.3273 -154.885 TC 35 -21.3397 -154.866 2 14 129
1959041S10189 1959 17 SP MM NOT_NAMED 1959-02-14 12:00:00 TS -21.8000 -154.300 main 2093 2093 O________OO___ jtwc_sh SH181959 -21.8000 -154.300 -1 -21.8000 205.700 TC 35 -21.8000 -154.300 2 14 132
1959041S10189 1959 17 SP MM NOT_NAMED 1959-02-14 15:00:00 TS -22.2873 -153.742 main 2172 2172 P________PP___ SH181959 -22.2773 -153.735 -1 -22.2773 -153.735 TC 35 -22.3071 -153.758 2 14 135
1959041S10189 1959 17 SP MM NOT_NAMED 1959-02-14 18:00:00 TS -22.8172 -153.210 main 2241 2241 O________OP___ jtwc_sh SH181959 -22.8000 -153.200 -1 -22.8000 206.800 TC 35 -22.8515 -153.231 2 15 139
1959041S10189 1959 17 SP MM NOT_NAMED 1959-02-14 21:00:00 TS -23.3952 -152.700 main 2315 2315 P________PP___ SH181959 -23.3828 -152.693 -1 -23.3828 -152.693 TC 35 -23.4201 -152.715 2 15 142
1959041S10189 1959 17 SP MM NOT_NAMED 1959-02-15 00:00:00 TS -24.0000 -152.200 main 2389 O________OO___ jtwc_sh SH181959 -24.0000 -152.200 -1 -24.0000 207.800 TC 35 -24.0000 -152.200 2 15 143

デジタル台風データ・検索

IBTrACS Databaseについて

本データベースは、米国NOAAが公開する1842年以降の世界の熱帯低気圧のベストトラックデータアーカイブInternational Best Track Archive for Climate Stewardship (IBTrACS)を、ウェブで閲覧しやすい形式に変換したものです。

最終更新日:2021-12-03